Terminal Aerodrome Forecast
Issued by NWS Shreveport, LA

Home | Current Version | Previous Version | Text Only | Print | Product List | Glossary On
Versions: 1 2 3 4 5 6 7 8 9 10 11 12 13 14 15 16 17 18
417
FTUS44 KSHV 071721
TAFGGG
TAF
KGGG 071721Z 0718/0818 13006KT P6SM SCT012 OVC020
     FM080000 03005KT P6SM VCSH OVC010
      TEMPO 0802/0806 6SM -SHRA OVC008
     FM080600 01010KT 6SM -RA BR SCT004 OVC007
     FM081200 35012G18KT P6SM VCSH BKN015 OVC100=

USA.gov is the U.S. government's official web portal to all federal, state and local government web resources and services.